createdAt,value
2019-03-04T00:01:24.643Z,2.80
2019-03-04T00:03:57.420Z,2.60
2019-03-04T00:06:29.862Z,2.40
2019-03-04T00:09:20.639Z,2.33
2019-03-04T00:12:12.317Z,1.93
2019-03-04T00:14:39.574Z,2.70
2019-03-04T00:17:10.312Z,2.70
2019-03-04T00:19:50.053Z,2.10
2019-03-04T00:22:30.259Z,2.17
2019-03-04T00:25:11.078Z,2.33
2019-03-04T00:27:45.818Z,2.00
2019-03-04T00:30:17.593Z,1.98
2019-03-04T00:32:52.119Z,1.73
2019-03-04T00:35:24.015Z,1.70
2019-03-04T00:38:02.714Z,1.80
2019-03-04T00:41:01.941Z,1.80
2019-03-04T00:43:21.439Z,2.37
2019-03-04T00:45:51.656Z,1.80
2019-03-04T00:48:26.897Z,1.80
2019-03-04T00:50:54.349Z,1.80
2019-03-04T00:53:21.993Z,1.57
2019-03-04T00:55:49.469Z,2.77
2019-03-04T00:58:20.518Z,2.00
2019-03-04T01:00:51.865Z,2.00
2019-03-04T01:03:48.982Z,1.87
2019-03-04T01:06:29.257Z,1.70
2019-03-04T01:09:05.997Z,1.40
2019-03-04T01:11:37.411Z,1.53
2019-03-04T01:17:03.818Z,1.97
2019-03-04T01:22:37.059Z,2.70
2019-03-04T01:25:15.713Z,1.80
2019-03-04T01:27:53.173Z,1.80
2019-03-04T01:30:24.425Z,1.92
2019-03-04T01:33:04.915Z,2.60
2019-03-04T01:35:41.585Z,2.17
2019-03-04T01:38:18.860Z,1.90
2019-03-04T01:40:57.309Z,1.70
2019-03-04T01:43:42.740Z,1.40
2019-03-04T01:46:11.058Z,2.17
2019-03-04T01:48:48.848Z,2.30
2019-03-04T01:51:21.800Z,2.00
2019-03-04T01:53:57.643Z,1.87
2019-03-04T01:56:37.053Z,2.07
2019-03-04T01:59:20.741Z,1.30
2019-03-04T02:01:45.809Z,2.00
2019-03-04T02:04:22.141Z,2.17
2019-03-04T02:09:55.087Z,2.40
2019-03-04T02:12:40.781Z,1.80
2019-03-04T02:15:13.166Z,1.67
2019-03-04T02:17:58.157Z,2.20
2019-03-04T02:20:37.171Z,2.23
2019-03-04T02:23:09.001Z,2.60
2019-03-04T02:25:38.159Z,1.83
2019-03-04T02:28:20.965Z,1.63
2019-03-04T02:30:56.151Z,1.73
2019-03-04T02:33:45.307Z,2.17
2019-03-04T02:36:21.414Z,2.80
2019-03-04T02:38:58.387Z,1.87
2019-03-04T02:41:30.960Z,1.90
2019-03-04T02:44:02.153Z,2.13
2019-03-04T02:46:37.115Z,2.10
2019-03-04T02:49:05.191Z,1.70
2019-03-04T02:51:41.525Z,1.70
2019-03-04T02:57:04.117Z,2.60
2019-03-04T02:59:40.536Z,1.50
2019-03-04T03:05:08.583Z,1.90
2019-03-04T03:07:52.194Z,1.73
2019-03-04T03:10:37.458Z,2.10
2019-03-04T03:13:11.820Z,1.93
2019-03-04T03:15:47.003Z,1.80
2019-03-04T03:18:14.163Z,1.40
2019-03-04T03:20:48.480Z,2.07
2019-03-04T03:23:33.755Z,2.87
2019-03-04T03:25:58.151Z,2.05
2019-03-04T03:28:34.097Z,1.80
2019-03-04T03:31:06.471Z,2.40
2019-03-04T03:33:38.809Z,2.33
2019-03-04T03:36:08.404Z,1.70
2019-03-04T03:38:43.596Z,2.97
2019-03-04T03:41:16.503Z,1.97
2019-03-04T03:43:47.600Z,1.67
2019-03-04T03:49:38.655Z,2.73
2019-03-04T03:52:26.279Z,1.73
2019-03-04T03:54:58.720Z,2.03
2019-03-04T03:57:38.711Z,2.30
2019-03-04T04:00:29.712Z,1.83
2019-03-04T04:03:09.462Z,1.60
2019-03-04T04:05:46.066Z,1.37
2019-03-04T04:08:21.219Z,1.73
2019-03-04T04:10:48.423Z,1.73
2019-03-04T04:13:22.100Z,1.80
2019-03-04T04:16:15.371Z,1.70
2019-03-04T04:18:56.634Z,2.17
2019-03-04T04:21:35.490Z,1.60
2019-03-04T04:24:11.858Z,1.70
2019-03-04T04:26:42.368Z,1.47
2019-03-04T04:32:15.017Z,2.13
2019-03-04T04:34:45.106Z,1.63
2019-03-04T04:37:22.903Z,1.40
2019-03-04T04:39:48.107Z,2.30
2019-03-04T04:42:19.061Z,1.60
2019-03-04T04:44:57.558Z,1.60
2019-03-04T04:47:27.778Z,2.00
2019-03-04T04:50:10.466Z,2.03
2019-03-04T04:58:39.842Z,1.80
2019-03-04T05:01:08.060Z,1.63
2019-03-04T05:03:38.946Z,1.87
2019-03-04T05:06:08.654Z,1.80
2019-03-04T05:08:45.457Z,1.70
2019-03-04T05:14:13.329Z,1.90
2019-03-04T05:16:47.604Z,2.17
2019-03-04T05:22:16.047Z,1.80
2019-03-04T05:24:57.447Z,2.20
2019-03-04T05:27:38.695Z,2.50
2019-03-04T05:30:28.364Z,2.10
2019-03-04T05:32:52.881Z,2.00
2019-03-04T05:35:35.388Z,3.20
2019-03-04T05:38:02.893Z,2.30
2019-03-04T05:40:30.432Z,1.93
2019-03-04T05:42:57.887Z,1.70
2019-03-04T05:45:25.310Z,2.13
2019-03-04T05:47:52.885Z,2.53
2019-03-04T05:50:24.415Z,1.70
2019-03-04T05:52:51.862Z,2.47
2019-03-04T05:55:19.386Z,2.13
2019-03-04T05:57:46.898Z,1.63
2019-03-04T06:00:16.053Z,2.40
2019-03-04T06:02:43.547Z,2.40
2019-03-04T06:05:11.804Z,2.37
2019-03-04T06:07:40.913Z,2.20
2019-03-04T06:10:09.422Z,2.00
2019-03-04T06:12:36.787Z,1.83
2019-03-04T06:15:05.767Z,2.00
2019-03-04T06:17:33.146Z,2.30
2019-03-04T06:20:00.567Z,2.20
2019-03-04T06:22:27.953Z,1.90
2019-03-04T06:24:55.442Z,2.97
2019-03-04T06:27:22.827Z,2.30
2019-03-04T06:29:50.247Z,2.20
2019-03-04T06:32:17.642Z,3.67
2019-03-04T06:34:45.064Z,3.03
2019-03-04T06:37:12.458Z,2.70
2019-03-04T06:39:39.871Z,2.20
2019-03-04T06:42:07.254Z,1.57
2019-03-04T06:44:34.676Z,2.13
2019-03-04T06:47:02.060Z,1.73
2019-03-04T06:49:29.475Z,2.73
2019-03-04T06:51:56.858Z,2.50
2019-03-04T06:54:25.819Z,2.40
2019-03-04T06:57:04.136Z,1.80
2019-03-04T06:59:35.947Z,2.40
2019-03-04T07:02:07.531Z,1.80
2019-03-04T07:04:42.151Z,2.77
2019-03-04T07:07:09.544Z,3.83
2019-03-04T07:09:37.035Z,2.50
2019-03-04T07:12:04.517Z,2.30
2019-03-04T07:14:32.006Z,1.70
2019-03-04T07:16:59.388Z,2.40
2019-03-04T07:19:26.880Z,2.00
2019-03-04T07:21:54.261Z,2.10
2019-03-04T07:24:21.668Z,2.10
2019-03-04T07:26:49.118Z,2.63
2019-03-04T07:29:16.530Z,2.70
2019-03-04T07:31:43.984Z,2.03
2019-03-04T07:34:11.400Z,2.20
2019-03-04T07:36:38.860Z,2.50
2019-03-04T07:39:06.955Z,2.93
2019-03-04T07:41:34.330Z,3.00
2019-03-04T07:44:01.720Z,4.00
2019-03-04T07:46:29.135Z,2.80
2019-03-04T07:48:56.584Z,4.43
2019-03-04T07:51:24.170Z,5.90
2019-03-04T07:53:51.552Z,2.77
2019-03-04T07:56:19.043Z,2.17
2019-03-04T07:58:46.424Z,2.77
2019-03-04T08:01:13.845Z,2.57
2019-03-04T08:03:41.219Z,2.70
2019-03-04T08:06:08.778Z,2.10
2019-03-04T08:08:36.534Z,1.90
2019-03-04T08:11:22.005Z,2.13
2019-03-04T08:13:50.932Z,1.70
2019-03-04T08:16:18.360Z,2.10
2019-03-04T08:18:47.392Z,1.67
2019-03-04T08:21:14.808Z,2.00
2019-03-04T08:23:42.194Z,1.90
2019-03-04T08:26:09.751Z,1.30
2019-03-04T08:28:37.151Z,1.20
2019-03-04T08:31:04.572Z,1.33
2019-03-04T08:33:31.964Z,1.27
2019-03-04T08:35:59.379Z,1.10
2019-03-04T08:38:26.765Z,1.43
2019-03-04T08:40:54.176Z,1.10
2019-03-04T08:43:21.714Z,1.00
2019-03-04T08:45:49.178Z,1.20
2019-03-04T08:48:16.572Z,1.97
2019-03-04T08:50:44.004Z,1.30
2019-03-04T08:53:11.382Z,1.03
2019-03-04T08:55:38.792Z,0.90
2019-03-04T08:58:06.170Z,0.93
2019-03-04T09:00:33.951Z,1.30
2019-03-04T09:03:01.330Z,0.80
2019-03-04T09:05:28.746Z,0.87
2019-03-04T09:07:56.143Z,0.77
2019-03-04T09:10:24.498Z,0.90
2019-03-04T09:12:51.988Z,1.00
2019-03-04T09:15:19.442Z,1.30
2019-03-04T09:17:46.920Z,0.90
2019-03-04T09:20:15.074Z,0.80
2019-03-04T09:22:42.492Z,1.03
2019-03-04T09:25:11.414Z,0.80
2019-03-04T09:27:38.895Z,1.30
2019-03-04T09:30:07.832Z,1.00
2019-03-04T09:32:35.271Z,1.63
2019-03-04T09:35:02.691Z,1.00
2019-03-04T09:37:30.117Z,1.70
2019-03-04T09:39:57.499Z,0.90
2019-03-04T09:42:25.583Z,1.37
2019-03-04T09:44:52.970Z,1.70
2019-03-04T09:47:20.392Z,2.23
2019-03-04T09:49:47.783Z,1.63
2019-03-04T09:52:15.242Z,0.93
2019-03-04T09:54:42.600Z,2.17
2019-03-04T09:57:10.079Z,2.20
2019-03-04T09:59:37.411Z,1.30
2019-03-04T10:02:04.828Z,1.70
2019-03-04T10:04:33.754Z,1.10
2019-03-04T10:07:02.707Z,1.50
2019-03-04T10:09:37.305Z,1.37
2019-03-04T10:12:22.467Z,1.33
2019-03-04T10:14:54.166Z,1.93
2019-03-04T10:17:26.031Z,1.13
2019-03-04T10:20:00.879Z,0.93
2019-03-04T10:22:35.545Z,1.10
2019-03-04T10:25:16.398Z,1.43
2019-03-04T10:27:51.014Z,0.90
2019-03-04T10:30:22.887Z,1.20
2019-03-04T10:32:54.760Z,1.37
2019-03-04T10:35:29.454Z,1.20
2019-03-04T10:38:04.448Z,1.13
2019-03-04T10:40:36.032Z,1.20
2019-03-04T10:43:13.668Z,1.50
2019-03-04T10:45:45.281Z,1.23
2019-03-04T10:48:12.702Z,1.57
2019-03-04T10:50:40.092Z,1.45
2019-03-04T10:53:07.504Z,1.20
2019-03-04T10:55:42.047Z,1.10
2019-03-04T10:58:04.025Z,1.07
2019-03-04T11:00:31.486Z,1.20
2019-03-04T11:02:58.894Z,1.20
2019-03-04T11:05:26.278Z,1.20
2019-03-04T11:07:53.696Z,1.53
2019-03-04T11:10:21.149Z,1.90
2019-03-04T11:12:48.570Z,0.90
2019-03-04T11:15:20.295Z,1.17
2019-03-04T11:17:47.677Z,1.63
2019-03-04T11:20:15.092Z,1.40
2019-03-04T11:22:42.545Z,1.10
2019-03-04T11:25:10.032Z,1.90
2019-03-04T11:27:37.483Z,1.40
2019-03-04T11:30:06.435Z,0.97
2019-03-04T11:32:33.821Z,1.10
2019-03-04T11:35:01.235Z,1.47
2019-03-04T11:37:28.628Z,1.33
2019-03-04T11:39:57.674Z,0.93
2019-03-04T11:42:25.055Z,1.80
2019-03-04T11:44:52.480Z,1.00
2019-03-04T11:47:21.503Z,2.03
2019-03-04T11:49:48.928Z,1.40
2019-03-04T11:52:16.309Z,1.60
2019-03-04T11:54:43.733Z,1.70
2019-03-04T11:57:11.116Z,1.20
2019-03-04T11:59:38.530Z,1.23
2019-03-04T12:02:08.029Z,1.70
2019-03-04T12:04:35.443Z,1.70
2019-03-04T12:07:02.838Z,1.50
2019-03-04T12:09:30.251Z,1.90
2019-03-04T12:11:57.635Z,1.70
2019-03-04T12:14:25.046Z,1.17
2019-03-04T12:16:52.501Z,1.50
2019-03-04T12:19:19.910Z,0.97
2019-03-04T12:21:47.308Z,1.17
2019-03-04T12:24:14.727Z,1.57
2019-03-04T12:26:42.106Z,1.73
2019-03-04T12:29:09.517Z,1.53
2019-03-04T12:31:38.556Z,2.00
2019-03-04T12:34:06.041Z,1.43
2019-03-04T12:36:33.420Z,1.63
2019-03-04T12:39:00.818Z,1.70
2019-03-04T12:41:28.281Z,1.87
2019-03-04T12:43:55.628Z,2.00
2019-03-04T12:46:23.036Z,1.50
2019-03-04T12:48:50.430Z,1.53
2019-03-04T12:51:23.003Z,1.90
2019-03-04T12:53:46.882Z,1.63
2019-03-04T12:56:14.303Z,2.07
2019-03-04T12:58:41.695Z,1.90
2019-03-04T13:01:09.106Z,1.87
2019-03-04T13:03:36.490Z,1.07
2019-03-04T13:06:05.439Z,1.40
2019-03-04T13:08:32.819Z,1.27
2019-03-04T13:11:00.232Z,1.20
2019-03-04T13:13:27.622Z,2.00
2019-03-04T13:15:55.052Z,2.10
2019-03-04T13:18:22.517Z,1.57
2019-03-04T13:20:49.926Z,2.17
2019-03-04T13:23:17.325Z,1.80
2019-03-04T13:25:44.746Z,2.07
2019-03-04T13:28:12.130Z,1.80
2019-03-04T13:30:40.216Z,1.83
2019-03-04T13:33:07.666Z,1.97
2019-03-04T13:35:39.423Z,1.70
2019-03-04T13:38:06.831Z,2.00
2019-03-04T13:40:34.296Z,1.97
2019-03-04T13:43:01.750Z,2.20
2019-03-04T13:45:29.240Z,1.83
2019-03-04T13:47:56.688Z,2.70
2019-03-04T13:50:25.150Z,1.70
2019-03-04T13:52:52.557Z,2.87
2019-03-04T13:55:20.075Z,2.03
2019-03-04T13:57:47.463Z,1.90
2019-03-04T14:00:19.458Z,2.33
2019-03-04T14:02:46.952Z,2.80
2019-03-04T14:05:15.411Z,2.40
2019-03-04T14:07:42.818Z,2.30
2019-03-04T14:10:14.343Z,2.37
2019-03-04T14:12:41.832Z,1.90
2019-03-04T14:15:13.414Z,1.70
2019-03-04T14:17:40.826Z,1.70
2019-03-04T14:20:09.784Z,1.50
2019-03-04T14:22:40.297Z,2.40
2019-03-04T14:25:08.114Z,1.73
2019-03-04T14:27:35.527Z,1.33
2019-03-04T14:30:03.586Z,1.37
2019-03-04T14:32:30.998Z,1.80
2019-03-04T14:34:58.445Z,2.47
2019-03-04T14:37:25.800Z,1.80
2019-03-04T14:39:53.178Z,1.20
2019-03-04T14:42:20.595Z,2.00
2019-03-04T14:44:47.989Z,1.80
2019-03-04T14:47:15.406Z,2.57
2019-03-04T14:49:44.986Z,2.80
2019-03-04T14:52:12.009Z,3.20
2019-03-04T14:54:39.396Z,2.07
2019-03-04T14:57:06.811Z,1.43
2019-03-04T14:59:34.194Z,2.33
2019-03-04T15:02:01.602Z,2.00
2019-03-04T15:04:28.995Z,1.30
2019-03-04T15:06:56.416Z,2.00
2019-03-04T15:09:23.866Z,1.97
2019-03-04T15:11:51.285Z,1.47
2019-03-04T15:14:18.667Z,1.37
2019-03-04T15:16:46.090Z,2.33
2019-03-04T15:19:13.483Z,2.37
2019-03-04T15:21:41.355Z,1.93
2019-03-04T15:24:08.762Z,1.47
2019-03-04T15:26:42.007Z,1.97
2019-03-04T15:29:07.159Z,2.53
2019-03-04T15:31:34.310Z,1.47
2019-03-04T15:34:01.722Z,1.50
2019-03-04T15:36:29.114Z,1.20
2019-03-04T15:38:56.544Z,1.60
2019-03-04T15:41:23.930Z,1.37
2019-03-04T15:43:51.347Z,1.00
2019-03-04T15:46:18.735Z,0.90
2019-03-04T15:48:46.156Z,1.10
2019-03-04T15:51:13.542Z,1.10
2019-03-04T15:53:41.022Z,0.70
2019-03-04T15:56:08.413Z,1.20
2019-03-04T15:58:35.822Z,0.90
2019-03-04T16:01:04.277Z,1.00
2019-03-04T16:03:31.695Z,0.67
2019-03-04T16:05:59.154Z,0.87
2019-03-04T16:08:26.562Z,0.73
2019-03-04T16:10:53.957Z,1.13
2019-03-04T16:13:21.365Z,0.90
2019-03-04T16:15:48.847Z,0.70
2019-03-04T16:18:16.321Z,1.10
2019-03-04T16:20:43.786Z,1.40
2019-03-04T16:23:11.198Z,0.70
2019-03-04T16:25:38.582Z,0.80
2019-03-04T16:28:07.531Z,1.00
2019-03-04T16:30:34.912Z,1.03
2019-03-04T16:33:02.303Z,2.33
2019-03-04T16:35:29.715Z,1.00
2019-03-04T16:37:57.107Z,0.90
2019-03-04T16:40:24.994Z,0.90
2019-03-04T16:42:52.385Z,1.10
2019-03-04T16:45:20.580Z,1.27
2019-03-04T16:47:48.036Z,0.90
2019-03-04T16:50:16.018Z,1.27
2019-03-04T16:52:44.477Z,1.33
2019-03-04T16:55:12.971Z,1.50
2019-03-04T16:57:40.357Z,0.93
2019-03-04T17:00:15.088Z,1.20
2019-03-04T17:02:42.470Z,0.97
2019-03-04T17:05:11.062Z,0.77
2019-03-04T17:07:38.515Z,0.90
2019-03-04T17:10:07.540Z,0.80
2019-03-04T17:12:34.927Z,0.90
2019-03-04T17:15:02.354Z,0.90
2019-03-04T17:17:29.744Z,0.80
2019-03-04T17:19:57.197Z,0.90
2019-03-04T17:22:24.547Z,1.10
2019-03-04T17:24:52.242Z,1.20
2019-03-04T17:27:19.629Z,1.07
2019-03-04T17:29:47.050Z,1.00
2019-03-04T17:32:14.447Z,0.80
2019-03-04T17:34:41.872Z,1.90
2019-03-04T17:37:09.264Z,1.00
2019-03-04T17:39:36.686Z,1.47
2019-03-04T17:42:04.255Z,0.90
2019-03-04T17:44:31.743Z,0.90
2019-03-04T17:46:59.211Z,1.20
2019-03-04T17:49:26.666Z,0.67
2019-03-04T17:51:54.079Z,1.17
2019-03-04T17:54:21.473Z,1.10
2019-03-04T17:56:48.994Z,1.70
2019-03-04T17:59:16.409Z,0.70
2019-03-04T18:01:43.820Z,1.10
2019-03-04T18:04:11.208Z,1.23
2019-03-04T18:06:38.640Z,0.93
2019-03-04T18:09:06.494Z,0.80
2019-03-04T18:11:33.948Z,0.93
2019-03-04T18:14:01.358Z,1.00
2019-03-04T18:16:28.797Z,1.03
2019-03-04T18:18:56.201Z,1.30
2019-03-04T18:21:23.627Z,1.00
2019-03-04T18:23:51.078Z,1.27
2019-03-04T18:26:20.266Z,1.23
2019-03-04T18:29:04.064Z,1.13
2019-03-04T18:31:47.866Z,1.60
2019-03-04T18:34:32.054Z,1.70
2019-03-04T18:37:06.844Z,2.10
2019-03-04T18:39:44.460Z,2.43
2019-03-04T18:42:13.435Z,1.90
2019-03-04T18:44:42.329Z,1.50
2019-03-04T18:47:11.291Z,1.43
2019-03-04T18:49:38.722Z,1.40
2019-03-04T18:52:06.143Z,1.50
2019-03-04T18:54:33.841Z,1.77
2019-03-04T18:57:01.367Z,1.57
2019-03-04T18:59:28.940Z,1.73
2019-03-04T19:01:56.600Z,1.47
2019-03-04T19:04:23.943Z,1.63
2019-03-04T19:06:51.356Z,1.40
2019-03-04T19:09:18.748Z,0.87
2019-03-04T19:11:46.243Z,1.53
2019-03-04T19:14:13.691Z,1.10
2019-03-04T19:16:41.212Z,1.30
2019-03-04T19:19:08.690Z,1.27
2019-03-04T19:21:36.074Z,1.13
2019-03-04T19:24:03.535Z,1.10
2019-03-04T19:26:30.971Z,1.37
2019-03-04T19:28:58.425Z,1.47
2019-03-04T19:31:26.236Z,1.00
2019-03-04T19:33:53.640Z,1.43
2019-03-04T19:36:21.053Z,1.00
2019-03-04T19:38:48.441Z,1.30
2019-03-04T19:41:15.947Z,1.40
2019-03-04T19:43:43.333Z,1.10
2019-03-04T19:46:10.752Z,1.80
2019-03-04T19:48:38.208Z,1.27
2019-03-04T19:51:05.630Z,1.87
2019-03-04T19:53:33.092Z,1.27
2019-03-04T19:56:00.502Z,2.10
2019-03-04T19:58:27.886Z,2.03
2019-03-04T20:00:55.307Z,1.47
2019-03-04T20:03:22.693Z,2.20
2019-03-04T20:05:50.150Z,1.40
2019-03-04T20:08:18.891Z,1.57
2019-03-04T20:10:46.344Z,1.40
2019-03-04T20:13:13.753Z,1.30
2019-03-04T20:15:41.211Z,1.73
2019-03-04T20:18:08.622Z,1.33
2019-03-04T20:20:36.077Z,1.20
2019-03-04T20:23:03.566Z,1.00
2019-03-04T20:25:30.952Z,1.23
2019-03-04T20:27:58.436Z,0.83
2019-03-04T20:30:25.891Z,1.27
2019-03-04T20:32:53.370Z,1.07
2019-03-04T20:35:21.325Z,0.83
2019-03-04T20:37:50.296Z,0.90
2019-03-04T20:40:17.773Z,1.33
2019-03-04T20:42:45.257Z,1.00
2019-03-04T20:45:13.622Z,0.90
2019-03-04T20:47:41.025Z,1.43
2019-03-04T20:50:10.327Z,2.20
2019-03-04T20:52:37.734Z,1.63
2019-03-04T20:55:06.640Z,0.90
2019-03-04T20:57:35.283Z,1.17
2019-03-04T21:00:02.936Z,1.37
2019-03-04T21:02:30.558Z,0.80
2019-03-04T21:04:58.071Z,0.80
2019-03-04T21:07:25.622Z,1.00
2019-03-04T21:09:55.040Z,1.00
2019-03-04T21:12:22.384Z,0.90
2019-03-04T21:14:49.839Z,1.30
2019-03-04T21:17:17.263Z,1.07
2019-03-04T21:19:44.648Z,1.30
2019-03-04T21:22:12.146Z,1.10
2019-03-04T21:24:39.535Z,0.70
2019-03-04T21:27:07.024Z,1.00
2019-03-04T21:29:35.942Z,0.70
2019-03-04T21:32:04.905Z,1.23
2019-03-04T21:34:50.293Z,1.27
2019-03-04T21:37:21.919Z,0.80
2019-03-04T21:39:50.787Z,0.80
2019-03-04T21:42:19.753Z,1.13
2019-03-04T21:44:48.661Z,0.80
2019-03-04T21:47:17.630Z,0.83
2019-03-04T21:49:46.479Z,0.70
2019-03-04T21:52:20.366Z,1.20
2019-03-04T21:54:44.534Z,1.00
2019-03-04T21:57:13.495Z,0.83
2019-03-04T21:59:40.951Z,0.70
2019-03-04T22:02:15.882Z,0.70
2019-03-04T22:04:43.258Z,1.00
2019-03-04T22:07:10.949Z,0.83
2019-03-04T22:09:38.401Z,0.60
2019-03-04T22:12:07.376Z,0.80
2019-03-04T22:14:34.830Z,0.70
2019-03-04T22:17:02.232Z,0.70
2019-03-04T22:19:29.658Z,0.90
2019-03-04T22:21:57.027Z,0.63
2019-03-04T22:24:24.447Z,0.70
2019-03-04T22:26:51.861Z,0.80
2019-03-04T22:29:19.253Z,0.73
2019-03-04T22:31:46.679Z,0.73
2019-03-04T22:34:14.089Z,0.90
2019-03-04T22:36:41.470Z,0.90
2019-03-04T22:39:08.942Z,1.10
2019-03-04T22:41:36.400Z,1.23
2019-03-04T22:44:03.819Z,0.90
2019-03-04T22:46:31.211Z,0.87
2019-03-04T22:48:58.627Z,0.90
2019-03-04T22:51:26.021Z,1.57
2019-03-04T22:53:53.433Z,1.87
2019-03-04T22:56:20.836Z,1.73
2019-03-04T22:58:48.234Z,1.20
2019-03-04T23:01:24.790Z,1.33
2019-03-04T23:03:52.273Z,1.10
2019-03-04T23:06:24.101Z,1.33
2019-03-04T23:08:51.525Z,1.13
2019-03-04T23:11:20.275Z,1.67
2019-03-04T23:14:01.110Z,1.20
2019-03-04T23:16:29.971Z,1.30
2019-03-04T23:18:57.491Z,1.10
2019-03-04T23:21:24.888Z,1.13
2019-03-04T23:23:52.300Z,1.33
2019-03-04T23:26:19.695Z,1.57
2019-03-04T23:28:47.098Z,1.10
2019-03-04T23:31:14.493Z,1.70
2019-03-04T23:33:42.799Z,1.40
2019-03-04T23:36:10.254Z,1.70
2019-03-04T23:38:37.665Z,1.37
2019-03-04T23:41:05.055Z,1.60
2019-03-04T23:43:32.519Z,1.50
2019-03-04T23:45:59.931Z,1.43
2019-03-04T23:48:27.308Z,1.60
2019-03-04T23:50:54.794Z,1.63
2019-03-04T23:53:22.440Z,1.50
2019-03-04T23:55:49.937Z,1.63
2019-03-04T23:58:17.618Z,1.80
